createdAt,value
2023-01-18T05:42:11.117Z,53.30
2023-01-18T05:44:37.594Z,51.08
2023-01-18T05:47:04.097Z,49.85
2023-01-18T05:49:30.627Z,50.00
2023-01-18T05:51:57.191Z,47.73
2023-01-18T05:54:23.681Z,46.85
2023-01-18T05:56:50.346Z,46.28
2023-01-18T05:59:16.909Z,45.84
2023-01-18T06:01:43.521Z,46.18
2023-01-18T06:04:10.111Z,46.36
2023-01-18T06:06:36.769Z,47.18
2023-01-18T06:09:03.709Z,46.98
2023-01-18T06:11:30.325Z,46.80
2023-01-18T06:13:56.875Z,47.40
2023-01-18T06:16:24.629Z,47.54
2023-01-18T06:18:51.315Z,47.74
2023-01-18T06:21:18.050Z,47.79
2023-01-18T06:23:44.670Z,48.00
2023-01-18T06:26:11.304Z,48.25
2023-01-18T06:28:37.852Z,48.37
2023-01-18T06:31:07.854Z,48.40
2023-01-18T06:33:34.956Z,48.62
2023-01-18T06:36:01.715Z,53.77
2023-01-18T06:38:29.837Z,57.38
2023-01-18T06:40:56.375Z,60.01
2023-01-18T06:43:23.127Z,61.78
2023-01-18T06:45:56.715Z,62.74
2023-01-18T06:48:24.701Z,64.18
2023-01-18T06:50:54.628Z,60.57
2023-01-18T06:53:21.793Z,54.97
2023-01-18T06:55:58.984Z,52.40
2023-01-18T06:58:27.260Z,50.27
2023-01-18T07:00:58.769Z,50.16
2023-01-18T07:03:26.793Z,49.56
2023-01-18T07:05:54.814Z,49.20
2023-01-18T07:08:22.000Z,48.98
2023-01-18T07:10:48.838Z,48.96
2023-01-18T07:13:15.443Z,49.74
2023-01-18T07:15:42.287Z,49.10
2023-01-18T07:18:08.860Z,49.53
2023-01-18T07:20:35.467Z,49.14
2023-01-18T07:23:02.718Z,49.73
2023-01-18T07:25:32.218Z,49.44
2023-01-18T07:27:58.856Z,49.67
2023-01-18T07:30:25.781Z,49.92
2023-01-18T07:32:53.087Z,50.05
2023-01-18T07:35:24.527Z,50.39
2023-01-18T07:37:53.290Z,51.09
2023-01-18T07:40:21.461Z,51.20
2023-01-18T07:42:49.406Z,51.28
2023-01-18T07:45:16.257Z,51.27
2023-01-18T07:47:43.344Z,50.64
2023-01-18T07:50:10.874Z,51.09
2023-01-18T07:52:37.451Z,51.64
2023-01-18T07:55:06.604Z,51.69
2023-01-18T07:57:33.365Z,52.04
2023-01-18T07:59:59.916Z,52.51
2023-01-18T08:02:26.502Z,52.53
2023-01-18T08:04:53.061Z,52.73
2023-01-18T08:07:20.039Z,52.44
2023-01-18T08:09:46.580Z,52.55
2023-01-18T08:12:18.080Z,52.32
2023-01-18T08:14:48.195Z,52.66
2023-01-18T08:17:14.888Z,52.53
2023-01-18T08:19:41.414Z,52.67
2023-01-18T08:22:08.366Z,53.05
2023-01-18T08:24:35.310Z,53.14
2023-01-18T08:27:02.213Z,53.30
2023-01-18T08:29:28.814Z,53.61
2023-01-18T08:31:55.375Z,53.77
2023-01-18T08:34:22.046Z,53.83
2023-01-18T08:36:48.673Z,53.77
2023-01-18T08:39:15.298Z,53.97
2023-01-18T08:41:42.026Z,53.64
2023-01-18T08:44:08.614Z,53.39
2023-01-18T08:46:36.495Z,53.65
2023-01-18T08:49:05.789Z,54.37
2023-01-18T08:51:32.655Z,54.49
2023-01-18T08:53:59.943Z,52.73
2023-01-18T08:56:27.129Z,54.56
2023-01-18T08:58:54.206Z,54.58
2023-01-18T09:01:23.465Z,54.72
2023-01-18T09:03:50.770Z,55.03
2023-01-18T09:06:19.052Z,55.39
2023-01-18T09:08:49.515Z,55.28
2023-01-18T09:11:17.138Z,55.55
2023-01-18T09:13:59.321Z,55.42
2023-01-18T09:16:27.304Z,55.23
2023-01-18T09:18:55.481Z,55.53
2023-01-18T09:21:22.407Z,55.42
2023-01-18T09:23:49.519Z,53.91
2023-01-18T09:26:17.330Z,54.90
2023-01-18T09:28:45.050Z,55.22
2023-01-18T09:31:12.574Z,55.10
2023-01-18T09:33:41.182Z,55.53
2023-01-18T09:36:12.586Z,55.51
2023-01-18T09:38:40.280Z,55.23
2023-01-18T09:41:18.262Z,55.37
2023-01-18T09:43:50.461Z,55.35
2023-01-18T09:46:20.755Z,54.98
2023-01-18T09:48:56.084Z,55.00
2023-01-18T09:51:29.329Z,55.07
2023-01-18T09:54:11.592Z,55.40
2023-01-18T09:56:55.951Z,54.99
2023-01-18T09:59:38.686Z,55.00
2023-01-18T10:02:17.669Z,54.81
2023-01-18T10:04:47.785Z,54.73
2023-01-18T10:07:16.981Z,54.58
2023-01-18T10:09:53.617Z,54.55
2023-01-18T10:12:29.302Z,54.86
2023-01-18T10:15:17.471Z,54.77
2023-01-18T10:17:45.696Z,54.55
2023-01-18T10:20:38.626Z,54.58
2023-01-18T10:23:17.131Z,54.80
2023-01-18T10:25:55.379Z,54.68
2023-01-18T10:28:47.773Z,53.88
2023-01-18T10:31:41.630Z,53.84
2023-01-18T10:34:24.076Z,53.58
2023-01-18T10:36:57.324Z,54.07
2023-01-18T10:39:34.223Z,53.71
2023-01-18T10:42:06.363Z,53.09
2023-01-18T10:44:33.491Z,52.88
2023-01-18T10:47:01.440Z,53.04
2023-01-18T10:49:40.575Z,53.13
2023-01-18T10:52:30.502Z,52.81
2023-01-18T10:55:01.838Z,52.65
2023-01-18T10:57:47.918Z,52.84
2023-01-18T11:00:32.371Z,52.67
2023-01-18T11:03:01.018Z,52.63
2023-01-18T11:05:30.940Z,52.20
2023-01-18T11:08:25.109Z,52.88
2023-01-18T11:11:04.561Z,52.98
2023-01-18T11:13:40.522Z,52.64
2023-01-18T11:16:23.800Z,52.66
2023-01-18T11:19:04.353Z,53.41
2023-01-18T11:21:42.874Z,52.67
2023-01-18T11:24:16.066Z,52.25
2023-01-18T11:26:53.028Z,51.93
2023-01-18T11:29:22.259Z,51.38
2023-01-18T11:31:50.254Z,52.00
2023-01-18T11:34:25.071Z,51.47
2023-01-18T11:36:51.713Z,50.32
2023-01-18T11:39:27.257Z,50.18
2023-01-18T11:42:13.882Z,50.25
2023-01-18T11:44:48.426Z,49.44
2023-01-18T11:47:22.972Z,48.75
2023-01-18T11:50:05.651Z,48.35
2023-01-18T11:52:47.728Z,48.02
2023-01-18T11:55:47.693Z,48.67
2023-01-18T11:58:25.874Z,47.94
2023-01-18T12:01:27.907Z,47.88
2023-01-18T12:04:14.129Z,47.72
2023-01-18T12:06:54.748Z,46.99
2023-01-18T12:09:34.008Z,46.32
2023-01-18T12:12:22.213Z,46.39
2023-01-18T12:15:07.586Z,46.72
2023-01-18T12:18:13.046Z,46.24
2023-01-18T12:20:45.354Z,45.31
2023-01-18T12:23:33.381Z,45.89
2023-01-18T12:26:13.036Z,46.64
2023-01-18T12:29:01.647Z,46.14
2023-01-18T12:31:39.660Z,46.89
2023-01-18T12:34:18.048Z,46.29
2023-01-18T12:37:06.901Z,46.78
2023-01-18T12:40:05.028Z,47.04
2023-01-18T12:42:46.853Z,46.79
2023-01-18T12:45:39.049Z,47.43
2023-01-18T12:48:11.709Z,46.59
2023-01-18T12:50:47.025Z,46.53
2023-01-18T12:53:19.799Z,46.91
2023-01-18T12:55:51.109Z,46.55
2023-01-18T12:58:22.629Z,46.66
2023-01-18T13:00:53.968Z,46.38
2023-01-18T13:03:26.175Z,46.28
2023-01-18T13:05:57.204Z,46.52
2023-01-18T13:09:02.442Z,46.74
2023-01-18T13:11:41.643Z,46.07
2023-01-18T13:14:09.510Z,45.71
2023-01-18T13:16:45.326Z,46.21
2023-01-18T13:19:29.441Z,46.80
2023-01-18T13:22:19.835Z,47.21
2023-01-18T13:24:49.286Z,46.13
2023-01-18T13:27:17.927Z,46.08
2023-01-18T13:29:45.667Z,46.39
2023-01-18T13:32:35.478Z,46.97
2023-01-18T13:35:19.453Z,45.83
2023-01-18T13:37:56.452Z,46.38
2023-01-18T13:40:25.479Z,45.58
2023-01-18T13:42:52.064Z,45.67
2023-01-18T13:45:18.620Z,45.41
2023-01-18T13:47:54.975Z,45.94
2023-01-18T13:50:38.309Z,45.91
2023-01-18T13:53:13.843Z,45.50
2023-01-18T13:56:00.136Z,45.68
2023-01-18T13:58:32.978Z,45.62
2023-01-18T14:01:05.858Z,45.11
2023-01-18T14:03:47.054Z,45.70
2023-01-18T14:06:25.155Z,45.53
2023-01-18T14:08:55.576Z,45.49
2023-01-18T14:11:31.832Z,45.63
2023-01-18T14:13:59.236Z,45.58
2023-01-18T14:16:29.589Z,45.42
2023-01-18T14:19:18.849Z,45.77
2023-01-18T14:22:06.065Z,45.70
2023-01-18T14:25:08.124Z,45.91
2023-01-18T14:27:41.796Z,45.57
2023-01-18T14:30:31.064Z,45.78
2023-01-18T14:33:11.944Z,45.22
2023-01-18T14:35:39.079Z,45.21
2023-01-18T14:38:17.453Z,45.36
2023-01-18T14:40:48.393Z,45.35
2023-01-18T14:43:30.949Z,46.15
2023-01-18T14:46:01.996Z,45.59
2023-01-18T14:48:31.298Z,45.83
2023-01-18T14:50:59.657Z,45.67
2023-01-18T14:53:52.850Z,45.79
2023-01-18T14:56:31.976Z,45.45
2023-01-18T14:59:18.163Z,45.68
2023-01-18T15:01:53.236Z,46.21
2023-01-18T15:04:26.214Z,45.99
2023-01-18T15:07:20.205Z,45.80
2023-01-18T15:09:47.760Z,45.64
2023-01-18T15:12:22.622Z,45.51
2023-01-18T15:14:50.748Z,45.17
2023-01-18T15:17:23.717Z,45.30
2023-01-18T15:20:05.405Z,45.63
2023-01-18T15:22:34.551Z,45.32
2023-01-18T15:25:01.609Z,45.39
2023-01-18T15:27:31.695Z,45.27
2023-01-18T15:30:00.289Z,45.29
2023-01-18T15:32:32.778Z,45.54
2023-01-18T15:35:00.454Z,45.48
2023-01-18T15:37:33.751Z,45.66
2023-01-18T15:40:03.482Z,45.30
2023-01-18T15:42:43.465Z,45.93
2023-01-18T15:45:19.713Z,45.64
2023-01-18T15:47:50.179Z,45.64
2023-01-18T15:50:21.482Z,45.42
2023-01-18T15:53:02.006Z,45.41
2023-01-18T15:55:34.540Z,46.10
2023-01-18T15:58:07.683Z,45.98
2023-01-18T16:00:42.018Z,46.35
2023-01-18T16:03:21.700Z,46.20
2023-01-18T16:06:10.428Z,46.40
2023-01-18T16:09:12.881Z,46.45
2023-01-18T16:11:56.556Z,46.43
2023-01-18T16:14:29.593Z,46.73
2023-01-18T16:17:24.525Z,46.41
2023-01-18T16:19:55.593Z,46.75
2023-01-18T16:22:26.395Z,46.55
2023-01-18T16:24:57.194Z,46.67
2023-01-18T16:27:26.025Z,46.75
2023-01-18T16:29:59.704Z,46.86
2023-01-18T16:32:29.172Z,46.84
2023-01-18T16:34:59.948Z,47.25
2023-01-18T16:37:26.766Z,46.96
2023-01-18T16:39:55.396Z,47.31
2023-01-18T16:42:29.556Z,47.21
2023-01-18T16:45:04.289Z,47.29
2023-01-18T16:47:30.967Z,47.43
2023-01-18T16:49:59.348Z,47.54
2023-01-18T16:52:26.385Z,47.68
2023-01-18T16:54:52.917Z,47.75
2023-01-18T16:57:21.779Z,47.80
2023-01-18T16:59:48.660Z,47.88
2023-01-18T17:02:15.992Z,47.97
2023-01-18T17:04:42.880Z,47.78
2023-01-18T17:07:10.275Z,47.80
2023-01-18T17:09:48.018Z,47.93
2023-01-18T17:12:15.668Z,48.13
2023-01-18T17:14:42.307Z,48.27
2023-01-18T17:17:09.833Z,48.70
2023-01-18T17:19:37.870Z,48.57
2023-01-18T17:22:05.118Z,48.87
2023-01-18T17:24:31.735Z,48.92
2023-01-18T17:26:58.314Z,48.88
2023-01-18T17:29:25.046Z,49.15
2023-01-18T17:31:53.045Z,49.14
2023-01-18T17:34:27.480Z,49.10
2023-01-18T17:36:55.957Z,49.25
2023-01-18T17:39:24.892Z,48.42
2023-01-18T17:41:58.589Z,49.06
2023-01-18T17:44:36.488Z,49.54
2023-01-18T17:47:03.837Z,49.61
2023-01-18T17:49:30.367Z,49.54
2023-01-18T17:51:56.985Z,49.59
2023-01-18T17:54:23.448Z,49.82
2023-01-18T17:56:49.929Z,49.78
2023-01-18T17:59:16.402Z,49.97
2023-01-18T18:01:43.041Z,50.30
2023-01-18T18:04:09.842Z,50.14
2023-01-18T18:06:38.245Z,50.50
2023-01-18T18:09:06.928Z,50.36
2023-01-18T18:11:33.780Z,50.28
2023-01-18T18:14:02.221Z,49.50
2023-01-18T18:16:28.929Z,50.14
2023-01-18T18:18:57.095Z,50.45
2023-01-18T18:21:26.240Z,50.67
2023-01-18T18:23:52.841Z,50.46
2023-01-18T18:26:20.619Z,50.48
2023-01-18T18:28:47.095Z,50.53
2023-01-18T18:31:16.243Z,50.74
2023-01-18T18:33:42.904Z,50.75
2023-01-18T18:36:09.544Z,50.51
2023-01-18T18:38:36.074Z,50.76
2023-01-18T18:41:05.611Z,50.83
2023-01-18T18:43:32.795Z,50.76
2023-01-18T18:45:59.374Z,50.91
2023-01-18T18:48:26.131Z,51.12
2023-01-18T18:50:53.491Z,51.08
2023-01-18T18:53:23.843Z,50.90
2023-01-18T18:55:59.700Z,50.84
2023-01-18T18:58:26.658Z,51.01
2023-01-18T19:00:53.284Z,50.69
2023-01-18T19:03:21.341Z,50.51
2023-01-18T19:05:48.030Z,50.87
2023-01-18T19:08:14.712Z,50.81
2023-01-18T19:10:41.390Z,50.60
2023-01-18T19:13:08.097Z,50.92
2023-01-18T19:15:34.683Z,50.84
2023-01-18T19:18:01.334Z,50.85
2023-01-18T19:20:27.967Z,50.94
2023-01-18T19:22:54.535Z,50.78
2023-01-18T19:25:21.091Z,50.49
2023-01-18T19:27:47.674Z,50.83
2023-01-18T19:30:18.143Z,50.50
2023-01-18T19:32:50.945Z,50.90
2023-01-18T19:35:19.300Z,50.41
2023-01-18T19:37:47.120Z,50.55
2023-01-18T19:40:15.343Z,50.97
2023-01-18T19:42:42.107Z,50.88
2023-01-18T19:45:11.498Z,49.96
2023-01-18T19:47:42.684Z,50.46
2023-01-18T19:50:09.767Z,50.32
2023-01-18T19:52:37.036Z,50.59
2023-01-18T19:55:03.788Z,50.65
2023-01-18T19:57:30.392Z,50.54
2023-01-18T19:59:57.284Z,50.54
2023-01-18T20:02:24.260Z,49.82
2023-01-18T20:04:51.463Z,50.31
2023-01-18T20:07:18.499Z,50.15
2023-01-18T20:09:45.489Z,50.21
2023-01-18T20:12:13.434Z,50.42
2023-01-18T20:14:42.658Z,50.37
2023-01-18T20:17:11.792Z,50.35
2023-01-18T20:19:38.429Z,50.46
2023-01-18T20:22:05.036Z,49.97
2023-01-18T20:24:31.597Z,50.06
2023-01-18T20:27:14.805Z,50.02
2023-01-18T20:29:42.345Z,50.46
2023-01-18T20:32:15.764Z,50.19
2023-01-18T20:34:44.924Z,50.11
2023-01-18T20:37:12.474Z,49.82
2023-01-18T20:39:39.335Z,49.84
2023-01-18T20:42:05.880Z,49.50
2023-01-18T20:44:33.345Z,49.66
2023-01-18T20:46:59.906Z,49.60
2023-01-18T20:49:36.986Z,50.14
2023-01-18T20:52:05.189Z,49.79
2023-01-18T20:54:31.663Z,49.98
2023-01-18T20:56:58.979Z,49.93
2023-01-18T20:59:26.074Z,49.83
2023-01-18T21:01:53.342Z,49.91
2023-01-18T21:04:20.809Z,49.71
2023-01-18T21:06:49.966Z,49.64
2023-01-18T21:09:17.055Z,49.81
2023-01-18T21:11:43.935Z,49.73
2023-01-18T21:14:10.426Z,49.62
2023-01-18T21:16:37.061Z,49.80
2023-01-18T21:19:03.818Z,49.68
2023-01-18T21:21:32.004Z,49.52
2023-01-18T21:23:59.943Z,49.82
2023-01-18T21:26:26.712Z,49.88
2023-01-18T21:28:53.383Z,49.44
2023-01-18T21:31:20.254Z,49.87
2023-01-18T21:33:47.350Z,49.67
2023-01-18T21:36:17.539Z,49.98
2023-01-18T21:38:44.457Z,49.83
2023-01-18T21:41:29.722Z,49.76
2023-01-18T21:44:14.509Z,49.92
2023-01-18T21:46:45.750Z,50.06
2023-01-18T21:49:47.184Z,50.09
2023-01-18T21:52:37.536Z,50.47
2023-01-18T23:43:40.021Z,50.78
2023-01-18T23:46:25.113Z,51.10
2023-01-18T23:49:10.409Z,50.97
2023-01-18T23:51:55.663Z,51.10
2023-01-18T23:54:22.512Z,51.34
2023-01-18T23:56:49.115Z,50.97
2023-01-18T23:59:15.656Z,51.30
